sensor_id;sensor_type;location;lat;lon;timestamp;temperature;humidity
21906;DHT22;11117;48.644;9.006;2024-01-15T00:01:27;-1.00;99.90
21906;DHT22;11117;48.644;9.006;2024-01-15T00:03:59;-0.70;99.90
21906;DHT22;11117;48.644;9.006;2024-01-15T00:06:25;-0.60;99.90
21906;DHT22;11117;48.644;9.006;2024-01-15T00:08:50;-0.40;99.90
21906;DHT22;11117;48.644;9.006;2024-01-15T00:11:16;-0.60;99.90
21906;DHT22;11117;48.644;9.006;2024-01-15T00:13:42;-0.60;99.90
21906;DHT22;11117;48.644;9.006;2024-01-15T00:16:07;-0.50;99.90
21906;DHT22;11117;48.644;9.006;2024-01-15T00:18:33;-0.50;99.90
21906;DHT22;11117;48.644;9.006;2024-01-15T00:20:58;-0.40;99.90
21906;DHT22;11117;48.644;9.006;2024-01-15T00:23:24;-0.20;99.90
21906;DHT22;11117;48.644;9.006;2024-01-15T00:25:51;-0.10;99.90
21906;DHT22;11117;48.644;9.006;2024-01-15T00:28:16;0.00;99.90
21906;DHT22;11117;48.644;9.006;2024-01-15T00:30:42;0.10;99.90
21906;DHT22;11117;48.644;9.006;2024-01-15T00:33:08;0.10;99.90
21906;DHT22;11117;48.644;9.006;2024-01-15T00:35:33;-0.20;99.90
21906;DHT22;11117;48.644;9.006;2024-01-15T00:37:59;-0.20;99.90
21906;DHT22;11117;48.644;9.006;2024-01-15T00:40:24;-0.30;99.90
21906;DHT22;11117;48.644;9.006;2024-01-15T00:42:50;-0.30;99.90
21906;DHT22;11117;48.644;9.006;2024-01-15T00:45:15;-0.60;99.90
21906;DHT22;11117;48.644;9.006;2024-01-15T00:47:41;-0.90;99.90
21906;DHT22;11117;48.644;9.006;2024-01-15T00:50:07;-1.20;99.90
21906;DHT22;11117;48.644;9.006;2024-01-15T00:52:32;-1.30;99.90
21906;DHT22;11117;48.644;9.006;2024-01-15T00:54:58;-1.70;99.90
21906;DHT22;11117;48.644;9.006;2024-01-15T00:57:23;-1.80;99.90
21906;DHT22;11117;48.644;9.006;2024-01-15T00:59:49;-1.90;99.90
21906;DHT22;11117;48.644;9.006;2024-01-15T01:02:15;-2.00;99.90
21906;DHT22;11117;48.644;9.006;2024-01-15T01:04:40;-2.10;99.90
21906;DHT22;11117;48.644;9.006;2024-01-15T01:07:06;-2.20;99.90
21906;DHT22;11117;48.644;9.006;2024-01-15T01:09:31;-2.20;99.90
21906;DHT22;11117;48.644;9.006;2024-01-15T01:11:57;-2.20;99.90
21906;DHT22;11117;48.644;9.006;2024-01-15T01:14:23;-2.10;99.90
21906;DHT22;11117;48.644;9.006;2024-01-15T01:16:48;-2.10;99.90
21906;DHT22;11117;48.644;9.006;2024-01-15T01:19:14;-2.10;99.90
21906;DHT22;11117;48.644;9.006;2024-01-15T01:21:39;-2.00;99.90
21906;DHT22;11117;48.644;9.006;2024-01-15T01:24:05;-2.00;99.90
21906;DHT22;11117;48.644;9.006;2024-01-15T01:26:31;-1.90;99.90
21906;DHT22;11117;48.644;9.006;2024-01-15T01:28:59;-1.80;99.90
21906;DHT22;11117;48.644;9.006;2024-01-15T01:31:25;-1.80;99.90
21906;DHT22;11117;48.644;9.006;2024-01-15T01:33:51;-1.80;99.90
21906;DHT22;11117;48.644;9.006;2024-01-15T01:36:16;-1.80;99.90
21906;DHT22;11117;48.644;9.006;2024-01-15T01:38:42;-1.80;99.90
21906;DHT22;11117;48.644;9.006;2024-01-15T01:41:07;-1.70;99.90
21906;DHT22;11117;48.644;9.006;2024-01-15T01:43:33;-1.70;99.90
21906;DHT22;11117;48.644;9.006;2024-01-15T01:46:00;-1.70;99.90
21906;DHT22;11117;48.644;9.006;2024-01-15T01:48:26;-1.70;99.90
21906;DHT22;11117;48.644;9.006;2024-01-15T01:50:58;-1.70;99.90
21906;DHT22;11117;48.644;9.006;2024-01-15T01:53:26;-1.70;99.90
21906;DHT22;11117;48.644;9.006;2024-01-15T01:55:53;-1.60;99.90
21906;DHT22;11117;48.644;9.006;2024-01-15T01:58:19;-1.60;99.90
21906;DHT22;11117;48.644;9.006;2024-01-15T02:00:46;-1.60;99.90
21906;DHT22;11117;48.644;9.006;2024-01-15T02:03:12;-1.70;99.90
21906;DHT22;11117;48.644;9.006;2024-01-15T02:05:39;-1.70;99.90
21906;DHT22;11117;48.644;9.006;2024-01-15T02:08:05;-1.70;99.90
21906;DHT22;11117;48.644;9.006;2024-01-15T02:10:31;-1.60;99.90
21906;DHT22;11117;48.644;9.006;2024-01-15T02:12:57;-1.70;99.90
21906;DHT22;11117;48.644;9.006;2024-01-15T02:15:23;-1.70;99.90
21906;DHT22;11117;48.644;9.006;2024-01-15T02:20:24;-1.60;99.90
21906;DHT22;11117;48.644;9.006;2024-01-15T02:22:50;-1.60;99.90
21906;DHT22;11117;48.644;9.006;2024-01-15T02:25:16;-1.60;99.90
21906;DHT22;11117;48.644;9.006;2024-01-15T02:27:42;-1.60;99.90
21906;DHT22;11117;48.644;9.006;2024-01-15T02:30:12;-1.70;99.90
21906;DHT22;11117;48.644;9.006;2024-01-15T02:32:38;-1.70;99.90
21906;DHT22;11117;48.644;9.006;2024-01-15T02:35:04;-1.70;99.90
21906;DHT22;11117;48.644;9.006;2024-01-15T02:37:30;-1.50;99.90
21906;DHT22;11117;48.644;9.006;2024-01-15T02:39:56;-1.30;99.90
21906;DHT22;11117;48.644;9.006;2024-01-15T02:42:21;-1.10;99.90
21906;DHT22;11117;48.644;9.006;2024-01-15T02:44:47;-1.00;99.90
21906;DHT22;11117;48.644;9.006;2024-01-15T02:47:12;-0.90;99.90
21906;DHT22;11117;48.644;9.006;2024-01-15T02:49:38;-0.80;99.90
21906;DHT22;11117;48.644;9.006;2024-01-15T02:52:04;-0.60;99.90
21906;DHT22;11117;48.644;9.006;2024-01-15T02:54:29;-0.60;99.90
21906;DHT22;11117;48.644;9.006;2024-01-15T02:56:55;-0.50;99.90
21906;DHT22;11117;48.644;9.006;2024-01-15T02:59:20;-0.60;99.90
21906;DHT22;11117;48.644;9.006;2024-01-15T03:01:46;-0.60;99.90
21906;DHT22;11117;48.644;9.006;2024-01-15T03:04:11;-0.60;99.90
21906;DHT22;11117;48.644;9.006;2024-01-15T03:06:37;-0.60;99.90
21906;DHT22;11117;48.644;9.006;2024-01-15T03:09:03;-0.70;99.90
21906;DHT22;11117;48.644;9.006;2024-01-15T03:11:28;-0.60;99.90
21906;DHT22;11117;48.644;9.006;2024-01-15T03:13:59;-0.60;99.90
21906;DHT22;11117;48.644;9.006;2024-01-15T03:16:24;-0.60;99.90
21906;DHT22;11117;48.644;9.006;2024-01-15T03:18:50;-0.50;99.90
21906;DHT22;11117;48.644;9.006;2024-01-15T03:21:15;-0.50;99.90
21906;DHT22;11117;48.644;9.006;2024-01-15T03:23:41;-0.40;99.90
21906;DHT22;11117;48.644;9.006;2024-01-15T03:26:06;-0.70;99.90
21906;DHT22;11117;48.644;9.006;2024-01-15T03:28:32;-0.90;99.90
21906;DHT22;11117;48.644;9.006;2024-01-15T03:30:57;-0.90;99.90
21906;DHT22;11117;48.644;9.006;2024-01-15T03:33:23;-1.10;99.90
21906;DHT22;11117;48.644;9.006;2024-01-15T03:35:48;-1.30;99.90
21906;DHT22;11117;48.644;9.006;2024-01-15T03:38:14;-1.40;99.90
21906;DHT22;11117;48.644;9.006;2024-01-15T03:40:40;-1.60;99.90
21906;DHT22;11117;48.644;9.006;2024-01-15T03:43:05;-1.70;99.90
21906;DHT22;11117;48.644;9.006;2024-01-15T03:45:31;-1.80;99.90
21906;DHT22;11117;48.644;9.006;2024-01-15T03:47:56;-1.80;99.90
21906;DHT22;11117;48.644;9.006;2024-01-15T03:50:22;-1.70;99.90
21906;DHT22;11117;48.644;9.006;2024-01-15T03:52:47;-1.70;99.90
21906;DHT22;11117;48.644;9.006;2024-01-15T03:55:13;-1.70;99.90
21906;DHT22;11117;48.644;9.006;2024-01-15T03:57:38;-1.70;99.90
21906;DHT22;11117;48.644;9.006;2024-01-15T04:00:04;-1.70;99.90
21906;DHT22;11117;48.644;9.006;2024-01-15T04:02:30;-1.60;99.90
21906;DHT22;11117;48.644;9.006;2024-01-15T04:04:56;-1.60;99.90
21906;DHT22;11117;48.644;9.006;2024-01-15T04:07:21;-1.50;99.90
21906;DHT22;11117;48.644;9.006;2024-01-15T04:09:47;-1.50;99.90
21906;DHT22;11117;48.644;9.006;2024-01-15T04:12:12;-1.30;99.90
21906;DHT22;11117;48.644;9.006;2024-01-15T04:14:38;-1.30;99.90
21906;DHT22;11117;48.644;9.006;2024-01-15T04:17:03;-1.10;99.90
21906;DHT22;11117;48.644;9.006;2024-01-15T04:19:29;-1.10;99.90
21906;DHT22;11117;48.644;9.006;2024-01-15T04:21:55;-1.00;99.90
21906;DHT22;11117;48.644;9.006;2024-01-15T04:24:20;-0.70;99.90
21906;DHT22;11117;48.644;9.006;2024-01-15T04:26:46;-0.50;99.90
21906;DHT22;11117;48.644;9.006;2024-01-15T04:29:11;-0.50;99.90
21906;DHT22;11117;48.644;9.006;2024-01-15T04:31:37;-0.40;99.90
21906;DHT22;11117;48.644;9.006;2024-01-15T04:34:02;-0.30;99.90
21906;DHT22;11117;48.644;9.006;2024-01-15T04:36:28;-0.40;99.90
21906;DHT22;11117;48.644;9.006;2024-01-15T04:38:59;-0.50;99.90
21906;DHT22;11117;48.644;9.006;2024-01-15T04:41:25;-0.60;99.90
21906;DHT22;11117;48.644;9.006;2024-01-15T04:43:50;-0.70;99.90
21906;DHT22;11117;48.644;9.006;2024-01-15T04:46:16;-0.90;99.90
21906;DHT22;11117;48.644;9.006;2024-01-15T04:48:41;-1.00;99.90
21906;DHT22;11117;48.644;9.006;2024-01-15T04:51:09;-1.10;99.90
21906;DHT22;11117;48.644;9.006;2024-01-15T04:53:35;-1.10;99.90
21906;DHT22;11117;48.644;9.006;2024-01-15T04:56:00;-1.10;99.90
21906;DHT22;11117;48.644;9.006;2024-01-15T04:58:26;-1.20;99.90
21906;DHT22;11117;48.644;9.006;2024-01-15T05:00:51;-1.30;99.90
21906;DHT22;11117;48.644;9.006;2024-01-15T05:03:17;-1.30;99.90
21906;DHT22;11117;48.644;9.006;2024-01-15T05:05:42;-1.20;99.90
21906;DHT22;11117;48.644;9.006;2024-01-15T05:08:08;-1.20;99.90
21906;DHT22;11117;48.644;9.006;2024-01-15T05:10:33;-1.30;99.90
21906;DHT22;11117;48.644;9.006;2024-01-15T05:12:59;-1.20;99.90
21906;DHT22;11117;48.644;9.006;2024-01-15T05:15:25;-1.20;99.90
21906;DHT22;11117;48.644;9.006;2024-01-15T05:17:50;-1.10;99.90
21906;DHT22;11117;48.644;9.006;2024-01-15T05:20:16;-1.10;99.90
21906;DHT22;11117;48.644;9.006;2024-01-15T05:22:41;-1.10;99.90
21906;DHT22;11117;48.644;9.006;2024-01-15T05:25:07;-1.00;99.90
21906;DHT22;11117;48.644;9.006;2024-01-15T05:27:32;-0.90;99.90
21906;DHT22;11117;48.644;9.006;2024-01-15T05:29:58;-0.90;99.90
21906;DHT22;11117;48.644;9.006;2024-01-15T05:32:24;-0.90;99.90
21906;DHT22;11117;48.644;9.006;2024-01-15T05:34:49;-0.70;99.90
21906;DHT22;11117;48.644;9.006;2024-01-15T05:37:15;-0.60;99.90
21906;DHT22;11117;48.644;9.006;2024-01-15T05:39:40;-0.60;99.90
21906;DHT22;11117;48.644;9.006;2024-01-15T05:42:06;-0.60;99.90
21906;DHT22;11117;48.644;9.006;2024-01-15T05:44:31;-0.70;99.90
21906;DHT22;11117;48.644;9.006;2024-01-15T05:46:57;-0.80;99.90
21906;DHT22;11117;48.644;9.006;2024-01-15T05:49:23;-0.80;99.90
21906;DHT22;11117;48.644;9.006;2024-01-15T05:51:48;-0.90;99.90
21906;DHT22;11117;48.644;9.006;2024-01-15T05:54:14;-0.90;99.90
21906;DHT22;11117;48.644;9.006;2024-01-15T05:56:39;-0.60;99.90
21906;DHT22;11117;48.644;9.006;2024-01-15T05:59:06;-0.40;99.90
21906;DHT22;11117;48.644;9.006;2024-01-15T06:01:31;-0.10;99.90
21906;DHT22;11117;48.644;9.006;2024-01-15T06:03:59;-0.20;99.90
21906;DHT22;11117;48.644;9.006;2024-01-15T06:06:25;0.00;99.90
21906;DHT22;11117;48.644;9.006;2024-01-15T06:08:50;0.10;99.90
21906;DHT22;11117;48.644;9.006;2024-01-15T06:11:16;0.10;99.90
21906;DHT22;11117;48.644;9.006;2024-01-15T06:13:42;0.20;99.90
21906;DHT22;11117;48.644;9.006;2024-01-15T06:16:16;0.20;99.90
21906;DHT22;11117;48.644;9.006;2024-01-15T06:18:42;0.20;99.90
21906;DHT22;11117;48.644;9.006;2024-01-15T06:21:07;0.10;99.90
21906;DHT22;11117;48.644;9.006;2024-01-15T06:23:33;0.20;99.90
21906;DHT22;11117;48.644;9.006;2024-01-15T06:25:59;0.30;99.90
21906;DHT22;11117;48.644;9.006;2024-01-15T06:28:24;0.30;99.90
21906;DHT22;11117;48.644;9.006;2024-01-15T06:30:50;0.30;99.90
21906;DHT22;11117;48.644;9.006;2024-01-15T06:33:15;0.20;99.90
21906;DHT22;11117;48.644;9.006;2024-01-15T06:35:41;0.30;99.90
21906;DHT22;11117;48.644;9.006;2024-01-15T06:38:06;0.40;99.90
21906;DHT22;11117;48.644;9.006;2024-01-15T06:40:32;0.50;99.90
21906;DHT22;11117;48.644;9.006;2024-01-15T06:42:57;0.50;99.90
21906;DHT22;11117;48.644;9.006;2024-01-15T06:45:23;0.60;99.90
21906;DHT22;11117;48.644;9.006;2024-01-15T06:47:48;0.70;99.90
21906;DHT22;11117;48.644;9.006;2024-01-15T06:50:14;0.70;99.90
21906;DHT22;11117;48.644;9.006;2024-01-15T06:52:40;0.80;99.90
21906;DHT22;11117;48.644;9.006;2024-01-15T06:55:06;0.70;99.90
21906;DHT22;11117;48.644;9.006;2024-01-15T06:57:31;0.50;99.90
21906;DHT22;11117;48.644;9.006;2024-01-15T06:59:57;0.50;99.90
21906;DHT22;11117;48.644;9.006;2024-01-15T07:02:23;0.60;99.90
21906;DHT22;11117;48.644;9.006;2024-01-15T07:04:48;0.60;99.90
21906;DHT22;11117;48.644;9.006;2024-01-15T07:07:14;0.70;99.90
21906;DHT22;11117;48.644;9.006;2024-01-15T07:09:39;0.80;99.90
21906;DHT22;11117;48.644;9.006;2024-01-15T07:12:06;0.90;99.90
21906;DHT22;11117;48.644;9.006;2024-01-15T07:14:31;1.00;99.90
21906;DHT22;11117;48.644;9.006;2024-01-15T07:16:57;1.00;99.90
21906;DHT22;11117;48.644;9.006;2024-01-15T07:19:22;1.00;99.90
21906;DHT22;11117;48.644;9.006;2024-01-15T07:21:48;0.90;99.90
21906;DHT22;11117;48.644;9.006;2024-01-15T07:24:13;1.00;99.90
21906;DHT22;11117;48.644;9.006;2024-01-15T07:26:39;0.90;99.90
21906;DHT22;11117;48.644;9.006;2024-01-15T07:29:04;0.90;99.90
21906;DHT22;11117;48.644;9.006;2024-01-15T07:31:30;0.90;99.90
21906;DHT22;11117;48.644;9.006;2024-01-15T07:33:59;0.90;99.90
21906;DHT22;11117;48.644;9.006;2024-01-15T07:36:25;0.80;99.90
21906;DHT22;11117;48.644;9.006;2024-01-15T07:38:50;0.80;99.90
21906;DHT22;11117;48.644;9.006;2024-01-15T07:41:16;0.90;99.90
21906;DHT22;11117;48.644;9.006;2024-01-15T07:43:41;1.00;99.90
21906;DHT22;11117;48.644;9.006;2024-01-15T07:46:07;0.90;99.90
21906;DHT22;11117;48.644;9.006;2024-01-15T07:48:33;1.00;99.90
21906;DHT22;11117;48.644;9.006;2024-01-15T07:50:58;0.90;99.90
21906;DHT22;11117;48.644;9.006;2024-01-15T07:53:24;0.90;99.90
21906;DHT22;11117;48.644;9.006;2024-01-15T07:55:49;0.80;99.90
21906;DHT22;11117;48.644;9.006;2024-01-15T07:58:15;0.70;99.90
21906;DHT22;11117;48.644;9.006;2024-01-15T08:00:40;0.60;99.90
21906;DHT22;11117;48.644;9.006;2024-01-15T08:03:06;0.50;99.90
21906;DHT22;11117;48.644;9.006;2024-01-15T08:05:31;0.30;99.90
21906;DHT22;11117;48.644;9.006;2024-01-15T08:07:57;0.00;99.90
21906;DHT22;11117;48.644;9.006;2024-01-15T08:10:22;-0.10;99.90
21906;DHT22;11117;48.644;9.006;2024-01-15T08:12:48;-0.20;99.90
21906;DHT22;11117;48.644;9.006;2024-01-15T08:15:14;-0.30;99.90
21906;DHT22;11117;48.644;9.006;2024-01-15T08:17:39;-0.20;99.90
21906;DHT22;11117;48.644;9.006;2024-01-15T08:20:05;-0.20;99.90
21906;DHT22;11117;48.644;9.006;2024-01-15T08:22:31;-0.20;99.90
21906;DHT22;11117;48.644;9.006;2024-01-15T08:24:56;-0.10;99.90
21906;DHT22;11117;48.644;9.006;2024-01-15T08:27:22;-0.20;99.90
21906;DHT22;11117;48.644;9.006;2024-01-15T08:29:47;-0.10;99.90
21906;DHT22;11117;48.644;9.006;2024-01-15T08:32:13;-0.10;99.90
21906;DHT22;11117;48.644;9.006;2024-01-15T08:34:39;0.00;99.90
21906;DHT22;11117;48.644;9.006;2024-01-15T08:37:04;-0.10;99.90
21906;DHT22;11117;48.644;9.006;2024-01-15T08:39:30;-0.10;99.90
21906;DHT22;11117;48.644;9.006;2024-01-15T08:41:55;-0.10;99.90
21906;DHT22;11117;48.644;9.006;2024-01-15T08:44:21;-0.20;99.90
21906;DHT22;11117;48.644;9.006;2024-01-15T08:46:46;-0.30;99.90
21906;DHT22;11117;48.644;9.006;2024-01-15T08:49:12;-0.40;99.90
21906;DHT22;11117;48.644;9.006;2024-01-15T08:51:37;-0.30;99.90
21906;DHT22;11117;48.644;9.006;2024-01-15T08:54:03;-0.30;99.90
21906;DHT22;11117;48.644;9.006;2024-01-15T08:56:29;-0.30;99.90
21906;DHT22;11117;48.644;9.006;2024-01-15T08:58:57;-0.30;99.90
21906;DHT22;11117;48.644;9.006;2024-01-15T09:01:23;-0.30;99.90
21906;DHT22;11117;48.644;9.006;2024-01-15T09:03:48;-0.30;99.90
21906;DHT22;11117;48.644;9.006;2024-01-15T09:06:14;-0.30;99.90
21906;DHT22;11117;48.644;9.006;2024-01-15T09:08:39;-0.40;99.90
21906;DHT22;11117;48.644;9.006;2024-01-15T09:11:05;-0.30;99.90
21906;DHT22;11117;48.644;9.006;2024-01-15T09:13:31;-0.20;99.90
21906;DHT22;11117;48.644;9.006;2024-01-15T09:15:57;-0.20;99.90
21906;DHT22;11117;48.644;9.006;2024-01-15T09:18:23;-0.10;99.90
21906;DHT22;11117;48.644;9.006;2024-01-15T09:20:48;-0.10;99.90
21906;DHT22;11117;48.644;9.006;2024-01-15T09:23:14;0.00;99.90
21906;DHT22;11117;48.644;9.006;2024-01-15T09:25:40;0.00;99.90
21906;DHT22;11117;48.644;9.006;2024-01-15T09:28:05;0.00;99.90
21906;DHT22;11117;48.644;9.006;2024-01-15T09:30:31;0.00;99.90
21906;DHT22;11117;48.644;9.006;2024-01-15T09:32:56;0.10;99.90
21906;DHT22;11117;48.644;9.006;2024-01-15T09:35:22;0.20;99.90
21906;DHT22;11117;48.644;9.006;2024-01-15T09:37:47;0.40;99.90
21906;DHT22;11117;48.644;9.006;2024-01-15T09:40:14;0.60;99.90
21906;DHT22;11117;48.644;9.006;2024-01-15T09:42:40;0.80;99.90
21906;DHT22;11117;48.644;9.006;2024-01-15T09:45:07;0.80;99.90
21906;DHT22;11117;48.644;9.006;2024-01-15T09:47:33;0.60;99.90
21906;DHT22;11117;48.644;9.006;2024-01-15T09:49:58;0.70;99.90
21906;DHT22;11117;48.644;9.006;2024-01-15T09:52:25;0.70;99.90
21906;DHT22;11117;48.644;9.006;2024-01-15T09:54:50;0.60;99.90
21906;DHT22;11117;48.644;9.006;2024-01-15T09:57:17;0.60;99.90
21906;DHT22;11117;48.644;9.006;2024-01-15T09:59:43;0.50;99.90
21906;DHT22;11117;48.644;9.006;2024-01-15T10:02:13;0.50;99.90
21906;DHT22;11117;48.644;9.006;2024-01-15T10:04:39;0.40;99.90
21906;DHT22;11117;48.644;9.006;2024-01-15T10:07:06;0.40;99.90
21906;DHT22;11117;48.644;9.006;2024-01-15T10:09:33;0.40;99.90
21906;DHT22;11117;48.644;9.006;2024-01-15T10:11:59;0.40;99.90
21906;DHT22;11117;48.644;9.006;2024-01-15T10:14:25;0.40;99.90
21906;DHT22;11117;48.644;9.006;2024-01-15T10:16:50;0.30;99.90
21906;DHT22;11117;48.644;9.006;2024-01-15T10:19:16;0.30;99.90
21906;DHT22;11117;48.644;9.006;2024-01-15T10:21:41;0.30;99.90
21906;DHT22;11117;48.644;9.006;2024-01-15T10:24:07;0.30;99.90
21906;DHT22;11117;48.644;9.006;2024-01-15T10:26:32;0.30;99.90
21906;DHT22;11117;48.644;9.006;2024-01-15T10:28:58;0.30;99.90
21906;DHT22;11117;48.644;9.006;2024-01-15T10:31:25;0.40;99.90
21906;DHT22;11117;48.644;9.006;2024-01-15T10:33:51;0.60;99.90
21906;DHT22;11117;48.644;9.006;2024-01-15T10:36:17;0.50;99.90
21906;DHT22;11117;48.644;9.006;2024-01-15T10:38:44;0.60;99.90
21906;DHT22;11117;48.644;9.006;2024-01-15T10:41:10;0.60;99.90
21906;DHT22;11117;48.644;9.006;2024-01-15T10:43:36;0.70;99.90
21906;DHT22;11117;48.644;9.006;2024-01-15T10:46:02;0.60;99.90
21906;DHT22;11117;48.644;9.006;2024-01-15T10:48:28;0.80;99.90
21906;DHT22;11117;48.644;9.006;2024-01-15T10:50:54;1.00;99.90
21906;DHT22;11117;48.644;9.006;2024-01-15T10:53:21;1.00;99.90
21906;DHT22;11117;48.644;9.006;2024-01-15T10:55:48;0.80;99.90
21906;DHT22;11117;48.644;9.006;2024-01-15T10:58:15;0.70;99.90
21906;DHT22;11117;48.644;9.006;2024-01-15T11:00:41;0.70;99.90
21906;DHT22;11117;48.644;9.006;2024-01-15T11:03:07;0.70;99.90
21906;DHT22;11117;48.644;9.006;2024-01-15T11:05:43;0.60;99.90
21906;DHT22;11117;48.644;9.006;2024-01-15T11:08:09;0.50;99.90
21906;DHT22;11117;48.644;9.006;2024-01-15T11:10:39;0.60;99.90
21906;DHT22;11117;48.644;9.006;2024-01-15T11:13:05;0.60;99.90
21906;DHT22;11117;48.644;9.006;2024-01-15T11:15:30;0.50;99.90
21906;DHT22;11117;48.644;9.006;2024-01-15T11:18:01;0.80;99.90
21906;DHT22;11117;48.644;9.006;2024-01-15T11:20:27;1.10;99.90
21906;DHT22;11117;48.644;9.006;2024-01-15T11:22:52;1.40;99.90
21906;DHT22;11117;48.644;9.006;2024-01-15T11:25:19;1.70;99.90
21906;DHT22;11117;48.644;9.006;2024-01-15T11:27:47;1.70;99.90
21906;DHT22;11117;48.644;9.006;2024-01-15T11:30:13;1.80;99.90
21906;DHT22;11117;48.644;9.006;2024-01-15T11:32:39;1.80;99.90
21906;DHT22;11117;48.644;9.006;2024-01-15T11:35:05;1.70;99.90
21906;DHT22;11117;48.644;9.006;2024-01-15T11:40:19;2.10;99.90
21906;DHT22;11117;48.644;9.006;2024-01-15T11:42:46;1.70;99.90
21906;DHT22;11117;48.644;9.006;2024-01-15T11:45:12;1.60;99.90
21906;DHT22;11117;48.644;9.006;2024-01-15T11:50:15;1.50;99.90
21906;DHT22;11117;48.644;9.006;2024-01-15T11:52:48;1.60;99.90
21906;DHT22;11117;48.644;9.006;2024-01-15T11:55:35;1.60;99.90
21906;DHT22;11117;48.644;9.006;2024-01-15T11:58:01;1.50;99.90
21906;DHT22;11117;48.644;9.006;2024-01-15T12:00:27;1.20;99.90
21906;DHT22;11117;48.644;9.006;2024-01-15T12:02:53;1.00;99.90
21906;DHT22;11117;48.644;9.006;2024-01-15T12:05:20;0.90;99.90
21906;DHT22;11117;48.644;9.006;2024-01-15T12:07:49;1.10;99.90
21906;DHT22;11117;48.644;9.006;2024-01-15T12:10:18;1.20;99.90
21906;DHT22;11117;48.644;9.006;2024-01-15T12:12:53;1.20;99.90
21906;DHT22;11117;48.644;9.006;2024-01-15T12:15:22;1.10;99.90
21906;DHT22;11117;48.644;9.006;2024-01-15T12:17:47;1.00;99.90
21906;DHT22;11117;48.644;9.006;2024-01-15T12:20:14;1.00;99.90
21906;DHT22;11117;48.644;9.006;2024-01-15T12:22:39;1.10;99.90
21906;DHT22;11117;48.644;9.006;2024-01-15T12:25:05;1.20;99.90
21906;DHT22;11117;48.644;9.006;2024-01-15T12:27:31;1.30;99.90
21906;DHT22;11117;48.644;9.006;2024-01-15T12:29:58;1.10;99.90
21906;DHT22;11117;48.644;9.006;2024-01-15T12:32:24;1.00;99.90
21906;DHT22;11117;48.644;9.006;2024-01-15T12:34:50;0.80;99.90
21906;DHT22;11117;48.644;9.006;2024-01-15T12:37:19;0.60;99.90
21906;DHT22;11117;48.644;9.006;2024-01-15T12:39:45;0.50;99.90
21906;DHT22;11117;48.644;9.006;2024-01-15T12:42:11;0.60;99.90
21906;DHT22;11117;48.644;9.006;2024-01-15T12:44:37;0.50;99.90
21906;DHT22;11117;48.644;9.006;2024-01-15T12:47:02;0.40;99.90
21906;DHT22;11117;48.644;9.006;2024-01-15T12:49:28;0.30;99.90
21906;DHT22;11117;48.644;9.006;2024-01-15T12:51:56;0.30;99.90
21906;DHT22;11117;48.644;9.006;2024-01-15T12:54:22;0.20;99.90
21906;DHT22;11117;48.644;9.006;2024-01-15T12:56:48;0.20;99.90
21906;DHT22;11117;48.644;9.006;2024-01-15T12:59:14;0.10;99.90
21906;DHT22;11117;48.644;9.006;2024-01-15T13:01:39;0.10;99.90
21906;DHT22;11117;48.644;9.006;2024-01-15T13:04:05;0.10;99.90
21906;DHT22;11117;48.644;9.006;2024-01-15T13:06:31;0.10;99.90
21906;DHT22;11117;48.644;9.006;2024-01-15T13:08:59;0.10;99.90
21906;DHT22;11117;48.644;9.006;2024-01-15T13:11:24;0.00;99.90
21906;DHT22;11117;48.644;9.006;2024-01-15T13:13:50;0.00;99.90
21906;DHT22;11117;48.644;9.006;2024-01-15T13:16:15;0.00;99.90
21906;DHT22;11117;48.644;9.006;2024-01-15T13:18:41;-0.10;99.90
21906;DHT22;11117;48.644;9.006;2024-01-15T13:21:07;-0.10;99.90
21906;DHT22;11117;48.644;9.006;2024-01-15T13:23:32;0.00;99.90
21906;DHT22;11117;48.644;9.006;2024-01-15T13:25:58;-0.10;99.90
21906;DHT22;11117;48.644;9.006;2024-01-15T13:28:23;-0.10;99.90
21906;DHT22;11117;48.644;9.006;2024-01-15T13:30:49;-0.10;99.90
21906;DHT22;11117;48.644;9.006;2024-01-15T13:33:14;0.00;99.90
21906;DHT22;11117;48.644;9.006;2024-01-15T13:35:40;-0.10;99.90
21906;DHT22;11117;48.644;9.006;2024-01-15T13:38:06;0.00;99.90
21906;DHT22;11117;48.644;9.006;2024-01-15T13:40:31;-0.10;99.90
21906;DHT22;11117;48.644;9.006;2024-01-15T13:42:57;-0.10;99.90
21906;DHT22;11117;48.644;9.006;2024-01-15T13:45:22;0.00;99.90
21906;DHT22;11117;48.644;9.006;2024-01-15T13:47:48;0.00;99.90
21906;DHT22;11117;48.644;9.006;2024-01-15T13:50:13;0.00;99.90
21906;DHT22;11117;48.644;9.006;2024-01-15T13:52:39;0.10;99.90
21906;DHT22;11117;48.644;9.006;2024-01-15T13:55:05;0.20;99.90
21906;DHT22;11117;48.644;9.006;2024-01-15T13:57:31;0.20;99.90
21906;DHT22;11117;48.644;9.006;2024-01-15T13:59:56;0.30;99.90
21906;DHT22;11117;48.644;9.006;2024-01-15T14:02:22;0.30;99.90
21906;DHT22;11117;48.644;9.006;2024-01-15T14:04:48;0.30;99.90
21906;DHT22;11117;48.644;9.006;2024-01-15T14:07:13;0.40;99.90
21906;DHT22;11117;48.644;9.006;2024-01-15T14:09:39;0.50;99.90
21906;DHT22;11117;48.644;9.006;2024-01-15T14:12:05;0.50;99.90
21906;DHT22;11117;48.644;9.006;2024-01-15T14:14:31;0.60;99.90
21906;DHT22;11117;48.644;9.006;2024-01-15T14:16:56;0.70;99.90
21906;DHT22;11117;48.644;9.006;2024-01-15T14:19:22;0.60;99.90
21906;DHT22;11117;48.644;9.006;2024-01-15T14:21:47;0.50;99.90
21906;DHT22;11117;48.644;9.006;2024-01-15T14:24:13;0.60;99.90
21906;DHT22;11117;48.644;9.006;2024-01-15T14:26:38;0.50;99.90
21906;DHT22;11117;48.644;9.006;2024-01-15T14:29:04;0.60;99.90
21906;DHT22;11117;48.644;9.006;2024-01-15T14:31:30;0.60;99.90
21906;DHT22;11117;48.644;9.006;2024-01-15T14:33:59;0.60;99.90
21906;DHT22;11117;48.644;9.006;2024-01-15T14:36:24;0.70;99.90
21906;DHT22;11117;48.644;9.006;2024-01-15T14:38:50;0.60;99.90
21906;DHT22;11117;48.644;9.006;2024-01-15T14:41:16;0.60;99.90
21906;DHT22;11117;48.644;9.006;2024-01-15T14:43:41;0.60;99.90
21906;DHT22;11117;48.644;9.006;2024-01-15T14:46:07;0.60;99.90
21906;DHT22;11117;48.644;9.006;2024-01-15T14:48:32;0.60;99.90
21906;DHT22;11117;48.644;9.006;2024-01-15T14:50:58;0.40;99.90
21906;DHT22;11117;48.644;9.006;2024-01-15T14:53:24;0.20;99.90
21906;DHT22;11117;48.644;9.006;2024-01-15T14:55:49;0.10;99.90
21906;DHT22;11117;48.644;9.006;2024-01-15T14:58:16;-0.10;99.90
21906;DHT22;11117;48.644;9.006;2024-01-15T15:00:41;-0.30;99.90
21906;DHT22;11117;48.644;9.006;2024-01-15T15:03:07;-0.50;99.90
21906;DHT22;11117;48.644;9.006;2024-01-15T15:05:32;-0.60;99.90
21906;DHT22;11117;48.644;9.006;2024-01-15T15:07:58;-0.70;99.90
21906;DHT22;11117;48.644;9.006;2024-01-15T15:10:23;-0.80;99.90
21906;DHT22;11117;48.644;9.006;2024-01-15T15:12:49;-0.70;99.90
21906;DHT22;11117;48.644;9.006;2024-01-15T15:15:15;-0.80;99.90
21906;DHT22;11117;48.644;9.006;2024-01-15T15:17:40;-0.70;99.90
21906;DHT22;11117;48.644;9.006;2024-01-15T15:20:06;-0.70;99.90
21906;DHT22;11117;48.644;9.006;2024-01-15T15:22:32;-0.70;99.90
21906;DHT22;11117;48.644;9.006;2024-01-15T15:24:57;-0.70;99.90
21906;DHT22;11117;48.644;9.006;2024-01-15T15:27:23;-0.70;99.90
21906;DHT22;11117;48.644;9.006;2024-01-15T15:29:49;-0.70;99.90
21906;DHT22;11117;48.644;9.006;2024-01-15T15:32:14;-0.70;99.90
21906;DHT22;11117;48.644;9.006;2024-01-15T15:34:40;-0.80;99.90
21906;DHT22;11117;48.644;9.006;2024-01-15T15:37:05;-0.80;99.90